עמוד ראשי
METAR-TAF:

METAR-TAF

שדות תעופה :

Boulder City, נבדה, ארצות הברית

קו רוחב: 35-56-50N, קו אורך: 114-51-37W, גובה: 671מטר

תצפית מזג אוויר נוכחית

הדו"ח נערך לפני 12דקות, בשעה 12:35 UTC
רוח 4קשר עם כיוונים משתנים
טמפרטורת 33 צלסיוס
לחות 32%
לחץ 1017 hPa
ראות: 16.1קילומטר
שמיים נקיים

METAR: KBVU 251235Z AUTO VRB04KT 10SM CLR 33/14 A3003 RMK AO2

זמן: 05:47 (12:47 UTC)


TAF: חסר

תצפיות ותחזיות מזג אוויר לגבי יותר מ- 4,000 שדות תעופה ברחבי העולם. דוחות METAR ו- TAF.

התחנות הזמינות מסומנות בנקודות צהובות ואדומות על גבי המפה.

העבר את העכבר לנקודה הצבעונית על מנת לראות את שם התחנה.

לאחר מכן, לחץ כדי לראות את תוכן ואת תחזיות מזג האוויר.

כדי לשנות את המפה: לחץ על הכפתורים הירוקים עם הפלוס השחור כדי להתקרב; על הכפתור הירוק עם המקף כדי להתרחק; או בחיצים הירוקים למפות סמוכות.


METAR-TAF: